createdAt,value
2022-11-24T00:04:49.171Z,88.15
2022-11-24T00:11:50.926Z,88.05
2022-11-24T00:18:53.833Z,88.67
2022-11-24T00:25:55.512Z,88.48
2022-11-24T00:32:57.184Z,89.22
2022-11-24T00:39:58.819Z,89.45
2022-11-24T00:47:00.826Z,89.05
2022-11-24T00:54:02.883Z,89.05
2022-11-24T01:01:08.310Z,89.12
2022-11-24T01:08:10.020Z,88.58
2022-11-24T01:15:11.718Z,89.10
2022-11-24T01:22:13.604Z,88.93
2022-11-24T01:29:15.307Z,88.64
2022-11-24T01:36:16.947Z,89.02
2022-11-24T01:43:20.113Z,89.36
2022-11-24T01:50:21.726Z,89.95
2022-11-24T01:57:31.373Z,89.94
2022-11-24T02:04:33.715Z,90.10
2022-11-24T02:11:37.365Z,89.48
2022-11-24T02:18:39.043Z,89.15
2022-11-24T02:25:52.183Z,89.10
2022-11-24T02:32:53.928Z,89.13
2022-11-24T02:39:55.595Z,89.35
2022-11-24T02:47:23.695Z,88.54
2022-11-24T02:54:25.409Z,89.06
2022-11-24T03:01:27.156Z,89.29
2022-11-24T03:08:28.871Z,88.91
2022-11-24T03:15:30.658Z,88.87
2022-11-24T03:22:32.469Z,89.18
2022-11-24T03:29:34.104Z,88.55
2022-11-24T03:36:35.739Z,88.77
2022-11-24T03:43:43.219Z,89.05
2022-11-24T03:50:52.935Z,88.48
2022-11-24T03:57:54.574Z,87.71
2022-11-24T04:04:56.243Z,88.15
2022-11-24T04:12:16.640Z,88.46
2022-11-24T04:19:18.287Z,88.40
2022-11-24T04:26:19.950Z,88.85
2022-11-24T04:33:21.584Z,88.71
2022-11-24T04:40:23.244Z,88.79
2022-11-24T04:47:25.524Z,87.99
2022-11-24T04:54:27.179Z,88.04
2022-11-24T05:01:28.912Z,87.72
2022-11-24T05:08:30.587Z,87.09
2022-11-24T05:15:32.353Z,86.62
2022-11-24T05:22:33.929Z,87.22
2022-11-24T05:29:35.473Z,87.55
2022-11-24T05:36:56.205Z,86.96
2022-11-24T05:43:57.755Z,87.09
2022-11-24T05:50:59.393Z,87.48
2022-11-24T05:58:01.550Z,87.54
2022-11-24T06:05:03.223Z,87.26
2022-11-24T06:12:07.890Z,87.76
2022-11-24T06:19:10.454Z,87.01
2022-11-24T06:26:12.032Z,87.72
2022-11-24T06:33:13.618Z,87.84
2022-11-24T06:40:15.190Z,87.81
2022-11-24T06:47:16.968Z,87.39
2022-11-24T06:54:20.995Z,87.17
2022-11-24T07:01:27.170Z,86.90
2022-11-24T07:08:28.804Z,86.72
2022-11-24T07:15:30.514Z,87.15
2022-11-24T07:22:32.105Z,87.71
2022-11-24T07:29:33.686Z,87.70
2022-11-24T07:36:35.241Z,87.62
2022-11-24T07:43:37.332Z,86.96
2022-11-24T07:50:39.407Z,86.59
2022-11-24T07:57:41.114Z,85.97
2022-11-24T08:04:42.919Z,86.18
2022-11-24T08:11:44.476Z,85.75
2022-11-24T08:18:50.653Z,85.82
2022-11-24T08:25:56.733Z,85.91
2022-11-24T08:33:00.255Z,86.01
2022-11-24T08:40:01.855Z,85.62
2022-11-24T08:47:03.543Z,85.51
2022-11-24T08:54:05.175Z,84.57
2022-11-24T09:01:16.567Z,84.68
2022-11-24T09:08:18.199Z,85.20
2022-11-24T09:15:20.310Z,85.35
2022-11-24T09:22:21.943Z,84.89
2022-11-24T09:29:23.567Z,85.00
2022-11-24T09:36:25.173Z,84.35
2022-11-24T09:43:35.358Z,84.01
2022-11-24T09:50:37.389Z,83.31
2022-11-24T09:57:38.962Z,82.00
2022-11-24T10:04:43.213Z,82.54
2022-11-24T10:12:04.695Z,81.90
2022-11-24T10:19:34.448Z,80.66
2022-11-24T10:26:39.644Z,80.80
2022-11-24T10:33:41.256Z,80.08
2022-11-24T10:41:00.468Z,79.84
2022-11-24T10:48:02.055Z,78.19
2022-11-24T10:55:04.749Z,77.52
2022-11-24T11:02:35.773Z,76.80
2022-11-24T11:09:37.555Z,76.49
2022-11-24T11:16:43.780Z,75.84
2022-11-24T11:23:45.338Z,75.65
2022-11-24T11:31:17.888Z,73.64
2022-11-24T11:38:20.565Z,73.84
2022-11-24T11:45:26.610Z,72.87
2022-11-24T11:52:48.079Z,73.03
2022-11-24T12:00:05.178Z,72.66
2022-11-24T12:07:31.938Z,72.80
2022-11-24T12:15:21.286Z,73.13
2022-11-24T12:22:42.902Z,73.14
2022-11-24T12:30:09.554Z,73.28
2022-11-24T12:37:33.257Z,72.47
2022-11-24T12:44:50.873Z,73.57
2022-11-24T12:51:58.213Z,73.45
2022-11-24T12:59:18.069Z,72.82
2022-11-24T13:06:32.670Z,73.18
2022-11-24T13:13:57.653Z,73.62
2022-11-24T13:20:59.234Z,73.82
2022-11-24T13:28:06.450Z,73.41
2022-11-24T13:35:17.181Z,73.29
2022-11-24T13:42:41.835Z,73.18
2022-11-24T13:49:41.411Z,73.66
2022-11-24T13:56:42.988Z,74.29
2022-11-24T14:11:14.423Z,73.74
2022-11-24T14:18:18.342Z,74.31
2022-11-24T14:25:31.076Z,74.72
2022-11-24T14:32:32.658Z,74.72
2022-11-24T14:39:41.877Z,75.04
2022-11-24T14:46:43.774Z,75.54
2022-11-24T14:53:45.672Z,77.04
2022-11-24T15:01:07.846Z,76.92
2022-11-24T15:08:10.851Z,77.00
2022-11-24T15:15:15.472Z,77.61
2022-11-24T15:22:38.782Z,77.60
2022-11-24T15:29:40.352Z,78.14
2022-11-24T15:36:43.031Z,79.12
2022-11-24T15:43:44.648Z,79.41
2022-11-24T15:50:46.940Z,79.62
2022-11-24T15:57:48.775Z,79.64
2022-11-24T16:04:51.206Z,79.76
2022-11-24T16:11:52.871Z,79.51
2022-11-24T16:18:54.526Z,80.10
2022-11-24T16:25:56.122Z,80.82
2022-11-24T16:32:57.723Z,80.55
2022-11-24T16:40:01.435Z,80.55
2022-11-24T16:47:03.059Z,80.60
2022-11-24T16:54:04.728Z,81.38
2022-11-24T17:01:07.435Z,80.82
2022-11-24T17:08:09.117Z,80.40
2022-11-24T17:15:31.830Z,80.96
2022-11-24T17:22:32.393Z,81.41
2022-11-24T17:29:33.946Z,81.12
2022-11-24T17:36:35.701Z,80.68
2022-11-24T17:43:37.288Z,80.24
2022-11-24T17:50:38.878Z,80.52
2022-11-24T17:57:40.459Z,81.18
2022-11-24T18:04:42.025Z,81.59
2022-11-24T18:11:43.665Z,81.43
2022-11-24T18:18:50.081Z,82.40
2022-11-24T18:25:53.959Z,81.47
2022-11-24T18:32:55.550Z,81.45
2022-11-24T18:39:57.223Z,81.16
2022-11-24T18:46:58.780Z,80.86
2022-11-24T18:54:02.084Z,80.30
2022-11-24T19:01:16.895Z,80.85
2022-11-24T19:08:18.859Z,81.80
2022-11-24T19:15:20.447Z,82.01
2022-11-24T19:22:22.059Z,81.52
2022-11-24T19:29:23.804Z,82.45
2022-11-24T19:36:26.195Z,82.15
2022-11-24T19:43:27.983Z,82.96
2022-11-24T19:50:29.584Z,82.14
2022-11-24T19:57:31.139Z,81.98
2022-11-24T20:04:33.595Z,82.96
2022-11-24T20:11:35.582Z,82.37
2022-11-24T20:18:41.926Z,82.63
2022-11-24T20:25:44.160Z,82.21
2022-11-24T20:32:45.772Z,82.80
2022-11-24T20:39:47.919Z,82.85
2022-11-24T20:46:49.618Z,83.04
2022-11-24T20:53:52.527Z,83.07
2022-11-24T21:00:54.167Z,82.22
2022-11-24T21:07:55.789Z,81.86
2022-11-24T21:14:57.395Z,82.00
2022-11-24T21:21:58.982Z,81.92
2022-11-24T21:29:00.616Z,82.25
2022-11-24T21:36:03.106Z,82.93
2022-11-24T21:43:04.725Z,82.71
2022-11-24T21:50:07.272Z,82.83
2022-11-24T21:57:08.870Z,83.15
2022-11-24T22:04:10.488Z,82.96
2022-11-24T22:11:19.964Z,82.77
2022-11-24T22:18:21.567Z,83.00
2022-11-24T22:25:23.126Z,83.63
2022-11-24T22:32:24.682Z,83.47
2022-11-24T22:39:26.268Z,84.01
2022-11-24T22:46:28.510Z,83.96
2022-11-24T22:53:30.182Z,84.14
2022-11-24T23:00:31.819Z,84.21
2022-11-24T23:07:33.486Z,84.40
2022-11-24T23:14:35.292Z,84.65
2022-11-24T23:21:40.640Z,84.66
2022-11-24T23:28:43.141Z,84.58
2022-11-24T23:35:44.690Z,84.57
2022-11-24T23:42:49.386Z,84.27
2022-11-24T23:49:50.938Z,84.34
2022-11-24T23:56:52.518Z,84.85
